createdAt,value
2018-11-02T00:01:08.336Z,29.17
2018-11-02T00:03:35.245Z,27.60
2018-11-02T00:06:02.192Z,28.80
2018-11-02T00:08:29.064Z,29.00
2018-11-02T00:10:55.961Z,29.50
2018-11-02T00:13:22.876Z,27.77
2018-11-02T00:15:49.776Z,29.77
2018-11-02T00:18:16.689Z,30.00
2018-11-02T00:20:44.201Z,29.83
2018-11-02T00:23:11.242Z,31.00
2018-11-02T00:25:38.181Z,30.93
2018-11-02T00:28:05.154Z,30.60
2018-11-02T00:30:32.132Z,32.07
2018-11-02T00:33:00.133Z,32.73
2018-11-02T00:35:27.036Z,30.10
2018-11-02T00:37:53.952Z,30.97
2018-11-02T00:40:20.861Z,29.33
2018-11-02T00:42:47.778Z,30.63
2018-11-02T00:45:14.708Z,30.77
2018-11-02T00:47:41.664Z,30.83
2018-11-02T00:50:09.840Z,31.27
2018-11-02T00:52:36.792Z,31.57
2018-11-02T00:55:04.073Z,33.00
2018-11-02T00:57:31.001Z,32.10
2018-11-02T00:59:58.116Z,32.83
2018-11-02T01:02:25.016Z,30.33
2018-11-02T01:04:52.010Z,32.57
2018-11-02T01:07:18.918Z,33.37
2018-11-02T01:09:45.829Z,33.27
2018-11-02T01:12:12.778Z,33.90
2018-11-02T01:14:39.688Z,34.40
2018-11-02T01:17:06.610Z,34.50
2018-11-02T01:19:34.219Z,35.53
2018-11-02T01:22:07.912Z,33.93
2018-11-02T01:24:34.825Z,35.07
2018-11-02T01:27:02.624Z,34.93
2018-11-02T01:29:29.588Z,34.20
2018-11-02T01:31:56.889Z,33.97
2018-11-02T01:34:23.847Z,34.77
2018-11-02T01:36:50.778Z,32.50
2018-11-02T01:39:18.782Z,35.53
2018-11-02T01:41:45.721Z,33.87
2018-11-02T01:44:12.672Z,35.07
2018-11-02T01:46:39.573Z,33.87
2018-11-02T01:49:06.797Z,34.40
2018-11-02T01:51:33.716Z,34.97
2018-11-02T01:54:00.651Z,35.60
2018-11-02T01:56:27.601Z,35.07
2018-11-02T01:58:54.558Z,34.67
2018-11-02T02:01:21.468Z,34.23
2018-11-02T02:03:48.397Z,32.90
2018-11-02T02:06:15.305Z,33.00
2018-11-02T02:08:42.234Z,32.13
2018-11-02T02:11:09.166Z,33.40
2018-11-02T02:13:36.080Z,30.57
2018-11-02T02:16:02.989Z,30.47
2018-11-02T02:18:30.013Z,29.83
2018-11-02T02:20:57.208Z,30.03
2018-11-02T02:23:24.122Z,26.37
2018-11-02T02:25:51.037Z,26.30
2018-11-02T02:28:17.973Z,24.77
2018-11-02T02:30:44.888Z,25.27
2018-11-02T02:33:11.802Z,26.20
2018-11-02T02:35:38.713Z,25.37
2018-11-02T02:38:05.660Z,25.83
2018-11-02T02:40:32.546Z,24.70
2018-11-02T02:42:59.469Z,25.13
2018-11-02T02:45:26.356Z,24.13
2018-11-02T02:47:53.264Z,24.50
2018-11-02T02:50:20.168Z,24.60
2018-11-02T02:52:47.077Z,24.03
2018-11-02T02:55:14.001Z,22.37
2018-11-02T02:57:40.919Z,20.87
2018-11-02T03:00:09.608Z,22.13
2018-11-02T03:02:36.513Z,21.17
2018-11-02T03:05:03.452Z,21.40
2018-11-02T03:07:30.394Z,20.53
2018-11-02T03:09:57.321Z,20.63
2018-11-02T03:12:24.216Z,20.83
2018-11-02T03:14:51.150Z,20.53
2018-11-02T03:17:18.061Z,19.63
2018-11-02T03:19:45.013Z,20.07
2018-11-02T03:22:11.910Z,20.37
2018-11-02T03:24:38.825Z,19.80
2018-11-02T03:27:05.753Z,17.77
2018-11-02T03:29:32.664Z,18.33
2018-11-02T03:31:59.600Z,18.80
2018-11-02T03:34:26.504Z,18.33
2018-11-02T03:36:53.432Z,18.10
2018-11-02T03:39:20.342Z,17.23
2018-11-02T03:41:47.257Z,16.90
2018-11-02T03:44:14.192Z,16.87
2018-11-02T03:46:41.126Z,17.70
2018-11-02T03:49:08.332Z,16.47
2018-11-02T03:51:35.335Z,18.03
2018-11-02T03:54:02.281Z,16.17
2018-11-02T03:56:30.235Z,16.93
2018-11-02T03:58:57.121Z,14.97
2018-11-02T04:01:24.012Z,15.33
2018-11-02T04:03:50.929Z,16.13
2018-11-02T04:06:17.847Z,15.37
2018-11-02T04:08:44.756Z,15.40
2018-11-02T04:11:11.730Z,15.37
2018-11-02T04:13:38.633Z,15.67
2018-11-02T04:16:05.572Z,14.93
2018-11-02T04:18:32.501Z,14.53
2018-11-02T04:20:59.416Z,14.63
2018-11-02T04:23:26.402Z,14.60
2018-11-02T04:25:53.267Z,14.23
2018-11-02T04:28:20.164Z,14.33
2018-11-02T04:30:47.270Z,13.50
2018-11-02T04:33:14.000Z,14.10
2018-11-02T04:35:40.916Z,13.73
2018-11-02T04:38:07.847Z,13.40
2018-11-02T04:40:34.765Z,13.53
2018-11-02T04:43:01.732Z,13.87
2018-11-02T04:45:34.396Z,13.83
2018-11-02T04:48:01.504Z,13.63
2018-11-02T04:50:28.445Z,14.00
2018-11-02T04:52:55.352Z,14.10
2018-11-02T04:55:22.265Z,13.27
2018-11-02T04:57:49.172Z,13.90
2018-11-02T05:00:16.097Z,13.57
2018-11-02T05:02:43.078Z,12.90
2018-11-02T05:05:09.993Z,14.00
2018-11-02T05:07:36.925Z,14.10
2018-11-02T05:10:05.131Z,13.63
2018-11-02T05:12:32.057Z,13.17
2018-11-02T05:14:58.972Z,12.80
2018-11-02T05:17:25.918Z,12.93
2018-11-02T05:19:52.830Z,13.70
2018-11-02T05:22:19.754Z,14.80
2018-11-02T05:24:46.679Z,14.27
2018-11-02T05:27:13.609Z,13.70
2018-11-02T05:29:40.525Z,15.07
2018-11-02T05:32:07.693Z,13.20
2018-11-02T05:34:34.611Z,13.87
2018-11-02T05:37:01.537Z,13.70
2018-11-02T05:39:28.454Z,14.30
2018-11-02T05:41:55.393Z,15.40
2018-11-02T05:44:22.302Z,14.27
2018-11-02T05:46:49.221Z,13.77
2018-11-02T05:49:16.189Z,13.23
2018-11-02T05:51:43.113Z,13.43
2018-11-02T05:54:10.104Z,13.00
2018-11-02T05:56:36.978Z,12.87
2018-11-02T05:59:03.909Z,13.90
2018-11-02T06:01:30.879Z,12.53
2018-11-02T06:03:57.752Z,12.97
2018-11-02T06:06:24.661Z,13.00
2018-11-02T06:08:51.593Z,12.03
2018-11-02T06:11:18.512Z,13.13
2018-11-02T06:13:45.452Z,14.07
2018-11-02T06:16:12.353Z,14.17
2018-11-02T06:18:39.258Z,14.07
2018-11-02T06:21:06.165Z,14.90
2018-11-02T06:23:33.134Z,14.93
2018-11-02T06:26:00.042Z,15.47
2018-11-02T06:31:00.746Z,14.70
2018-11-02T06:33:27.653Z,14.47
2018-11-02T06:35:54.586Z,13.20
2018-11-02T06:38:21.550Z,13.57
2018-11-02T06:40:48.465Z,13.97
2018-11-02T06:43:15.397Z,13.60
2018-11-02T06:45:42.303Z,13.47
2018-11-02T06:48:09.221Z,13.43
2018-11-02T06:50:36.146Z,13.93
2018-11-02T06:53:03.350Z,13.53
2018-11-02T06:55:30.288Z,13.53
2018-11-02T06:57:57.218Z,12.00
2018-11-02T07:00:24.205Z,12.60
2018-11-02T07:02:51.091Z,11.93
2018-11-02T07:05:18.017Z,12.63
2018-11-02T07:07:45.029Z,12.50
2018-11-02T07:10:11.904Z,12.43
2018-11-02T07:12:38.785Z,11.07
2018-11-02T07:15:05.838Z,11.73
2018-11-02T07:17:32.797Z,11.63
2018-11-02T07:19:59.724Z,12.90
2018-11-02T07:22:26.652Z,11.53
2018-11-02T07:25:00.504Z,11.33
2018-11-02T07:27:27.601Z,11.50
2018-11-02T07:29:54.516Z,10.93
2018-11-02T07:32:21.445Z,12.07
2018-11-02T07:34:48.372Z,11.10
2018-11-02T07:37:15.309Z,11.50
2018-11-02T07:39:42.234Z,11.77
2018-11-02T07:42:09.169Z,12.47
2018-11-02T07:44:36.117Z,11.90
2018-11-02T07:47:03.028Z,11.57
2018-11-02T07:49:30.011Z,11.23
2018-11-02T07:51:56.872Z,11.10
2018-11-02T07:54:24.025Z,11.27
2018-11-02T07:56:50.933Z,12.03
2018-11-02T07:59:17.851Z,10.47
2018-11-02T08:01:45.303Z,10.43
2018-11-02T08:04:12.318Z,11.00
2018-11-02T08:06:39.242Z,10.67
2018-11-02T08:09:08.052Z,11.53
2018-11-02T08:11:35.052Z,10.80
2018-11-02T08:14:01.975Z,11.03
2018-11-02T08:16:28.914Z,11.23
2018-11-02T08:18:55.871Z,11.13
2018-11-02T08:21:22.723Z,11.60
2018-11-02T08:23:49.646Z,10.57
2018-11-02T08:26:16.557Z,11.17
2018-11-02T08:28:43.482Z,11.23
2018-11-02T08:31:10.389Z,10.23
2018-11-02T08:33:37.281Z,11.17
2018-11-02T08:36:04.288Z,10.17
2018-11-02T08:38:31.176Z,10.87
2018-11-02T08:40:58.152Z,10.70
2018-11-02T08:43:25.051Z,10.30
2018-11-02T08:45:51.949Z,10.67
2018-11-02T08:48:18.865Z,10.80
2018-11-02T08:50:45.770Z,11.57
2018-11-02T08:53:12.689Z,11.80
2018-11-02T08:55:39.597Z,12.37
2018-11-02T08:58:06.742Z,12.37
2018-11-02T09:00:33.407Z,13.10
2018-11-02T09:03:00.337Z,13.33
2018-11-02T09:05:27.237Z,14.53
2018-11-02T09:07:54.175Z,14.23
2018-11-02T09:10:21.086Z,14.23
2018-11-02T09:12:48.001Z,14.97
2018-11-02T09:15:14.932Z,14.50
2018-11-02T09:17:41.830Z,15.20
2018-11-02T09:20:08.778Z,14.97
2018-11-02T09:22:35.769Z,14.37
2018-11-02T09:25:02.697Z,14.57
2018-11-02T09:27:29.696Z,14.33
2018-11-02T09:29:56.621Z,15.30
2018-11-02T09:32:23.529Z,14.60
2018-11-02T09:34:50.450Z,13.67
2018-11-02T09:37:17.366Z,12.50
2018-11-02T09:39:44.273Z,11.70
2018-11-02T09:42:11.205Z,11.90
2018-11-02T09:44:38.146Z,11.40
2018-11-02T09:47:05.136Z,12.47
2018-11-02T09:49:32.073Z,11.97
2018-11-02T09:51:59.082Z,10.97
2018-11-02T09:54:25.916Z,10.20
2018-11-02T09:56:52.822Z,10.73
2018-11-02T09:59:19.774Z,9.47
2018-11-02T10:01:46.688Z,7.67
2018-11-02T10:04:13.614Z,6.70
2018-11-02T10:06:40.538Z,6.37
2018-11-02T10:09:09.350Z,5.20
2018-11-02T10:11:36.859Z,5.30
2018-11-02T10:14:04.002Z,4.70
2018-11-02T10:16:31.107Z,3.70
2018-11-02T10:18:58.098Z,3.67
2018-11-02T10:21:25.034Z,3.77
2018-11-02T10:23:51.983Z,3.80
2018-11-02T10:26:18.888Z,3.13
2018-11-02T10:28:45.849Z,3.27
2018-11-02T10:31:12.782Z,3.00
2018-11-02T10:33:39.721Z,3.13
2018-11-02T10:36:06.739Z,2.93
2018-11-02T10:38:33.929Z,3.13
2018-11-02T10:41:00.985Z,2.90
2018-11-02T10:43:31.262Z,3.00
2018-11-02T10:45:59.423Z,3.33
2018-11-02T10:48:27.602Z,3.23
2018-11-02T10:50:54.570Z,2.80
2018-11-02T10:53:21.510Z,3.17
2018-11-02T10:55:48.447Z,2.60
2018-11-02T10:58:15.361Z,2.60
2018-11-02T11:00:48.285Z,2.33
2018-11-02T11:03:15.127Z,2.67
2018-11-02T11:05:42.191Z,2.90
2018-11-02T11:08:09.145Z,2.73
2018-11-02T11:10:36.077Z,2.80
2018-11-02T11:13:03.292Z,2.93
2018-11-02T11:15:30.709Z,2.47
2018-11-02T11:17:57.633Z,2.93
2018-11-02T11:20:24.602Z,2.50
2018-11-02T11:22:51.519Z,2.50
2018-11-02T11:25:18.465Z,2.70
2018-11-02T11:27:45.406Z,2.30
2018-11-02T11:30:18.411Z,2.47
2018-11-02T11:32:46.021Z,2.27
2018-11-02T11:35:14.853Z,2.67
2018-11-02T11:37:42.293Z,2.13
2018-11-02T11:40:12.093Z,2.63
2018-11-02T11:42:39.259Z,2.23
2018-11-02T11:45:07.869Z,2.13
2018-11-02T11:47:35.560Z,2.40
2018-11-02T11:50:03.190Z,1.87
2018-11-02T11:52:31.731Z,2.27
2018-11-02T11:54:59.171Z,2.33
2018-11-02T11:57:26.104Z,2.50
2018-11-02T11:59:53.009Z,2.23
2018-11-02T12:02:20.044Z,2.00
2018-11-02T12:04:46.962Z,2.13
2018-11-02T12:07:13.854Z,2.37
2018-11-02T12:09:40.766Z,2.23
2018-11-02T12:12:07.697Z,2.27
2018-11-02T12:14:34.610Z,2.50
2018-11-02T12:17:01.525Z,2.13
2018-11-02T12:19:28.450Z,1.80
2018-11-02T12:21:55.353Z,1.93
2018-11-02T12:24:22.284Z,1.80
2018-11-02T12:26:49.221Z,2.03
2018-11-02T12:29:16.171Z,1.60
2018-11-02T12:31:44.992Z,2.07
2018-11-02T12:34:11.959Z,2.37
2018-11-02T12:36:38.861Z,2.00
2018-11-02T12:39:06.825Z,2.93
2018-11-02T12:41:33.742Z,2.63
2018-11-02T12:44:00.699Z,2.37
2018-11-02T12:46:27.590Z,1.97
2018-11-02T12:48:54.888Z,3.70
2018-11-02T12:51:21.462Z,2.70
2018-11-02T12:53:48.461Z,2.33
2018-11-02T12:56:15.300Z,2.20
2018-11-02T12:58:42.218Z,2.43
2018-11-02T13:01:09.153Z,2.97
2018-11-02T13:03:36.085Z,3.20
2018-11-02T13:06:03.201Z,2.90
2018-11-02T13:08:30.105Z,2.00
2018-11-02T13:10:57.037Z,2.10
2018-11-02T13:13:23.943Z,2.90
2018-11-02T13:15:50.996Z,2.43
2018-11-02T13:18:19.234Z,3.23
2018-11-02T13:20:46.301Z,2.33
2018-11-02T13:23:13.221Z,1.90
2018-11-02T13:25:40.179Z,2.07
2018-11-02T13:28:07.060Z,2.43
2018-11-02T13:30:34.068Z,2.40
2018-11-02T13:33:00.883Z,2.07
2018-11-02T13:35:27.800Z,1.83
2018-11-02T13:37:54.706Z,2.07
2018-11-02T13:40:21.607Z,1.70
2018-11-02T13:42:48.568Z,2.43
2018-11-02T13:45:16.669Z,2.00
2018-11-02T13:47:43.913Z,2.20
2018-11-02T13:50:11.345Z,2.17
2018-11-02T13:52:38.313Z,2.30
2018-11-02T13:55:06.340Z,1.97
2018-11-02T13:57:33.259Z,2.20
2018-11-02T14:00:00.247Z,1.90
2018-11-02T14:02:27.081Z,2.03
2018-11-02T14:04:53.993Z,1.60
2018-11-02T14:07:20.917Z,1.70
2018-11-02T14:09:47.857Z,1.60
2018-11-02T14:12:14.889Z,1.80
2018-11-02T14:14:41.809Z,1.60
2018-11-02T14:17:08.750Z,1.60
2018-11-02T14:19:35.657Z,2.07
2018-11-02T14:22:02.597Z,1.80
2018-11-02T14:24:29.497Z,1.73
2018-11-02T14:26:56.416Z,2.07
2018-11-02T14:29:30.276Z,2.40
2018-11-02T14:31:57.161Z,2.03
2018-11-02T14:36:57.827Z,2.03
2018-11-02T14:39:24.728Z,1.97
2018-11-02T14:41:51.640Z,2.00
2018-11-02T14:44:18.544Z,2.07
2018-11-02T14:46:45.607Z,1.93
2018-11-02T14:49:13.002Z,1.70
2018-11-02T14:51:39.929Z,2.43
2018-11-02T14:54:06.834Z,1.90
2018-11-02T14:56:33.759Z,2.03
2018-11-02T14:59:00.680Z,1.90
2018-11-02T15:01:28.297Z,1.90
2018-11-02T15:03:55.237Z,2.00
2018-11-02T15:06:22.142Z,2.20
2018-11-02T15:08:49.067Z,2.07
2018-11-02T15:11:16.033Z,2.30
2018-11-02T15:13:42.938Z,2.27
2018-11-02T15:16:09.849Z,2.00
2018-11-02T15:18:36.789Z,2.33
2018-11-02T15:21:04.433Z,2.00
2018-11-02T15:23:31.358Z,2.60
2018-11-02T15:25:58.285Z,1.93
2018-11-02T15:28:25.206Z,2.60
2018-11-02T15:30:52.133Z,2.63
2018-11-02T15:33:19.065Z,2.40
2018-11-02T15:35:46.013Z,2.30
2018-11-02T15:38:12.952Z,2.60
2018-11-02T15:40:39.861Z,2.30
2018-11-02T15:43:06.810Z,2.40
2018-11-02T15:45:33.720Z,1.90
2018-11-02T15:48:00.644Z,2.30
2018-11-02T15:50:27.558Z,2.53
2018-11-02T15:52:54.488Z,2.13
2018-11-02T15:55:21.425Z,2.40
2018-11-02T15:57:48.381Z,1.90
2018-11-02T16:00:17.517Z,1.80
2018-11-02T16:02:45.722Z,2.07
2018-11-02T16:05:12.650Z,2.30
2018-11-02T16:07:39.953Z,1.87
2018-11-02T16:10:08.298Z,2.07
2018-11-02T16:12:35.215Z,2.67
2018-11-02T16:15:02.381Z,2.30
2018-11-02T16:17:29.297Z,2.67
2018-11-02T16:19:56.286Z,3.10
2018-11-02T16:22:23.125Z,3.37
2018-11-02T16:24:50.039Z,3.60
2018-11-02T16:27:16.965Z,2.87
2018-11-02T16:29:43.883Z,2.87
2018-11-02T16:32:10.795Z,2.60
2018-11-02T16:34:37.717Z,2.93
2018-11-02T16:37:04.871Z,2.83
2018-11-02T16:39:31.785Z,2.73
2018-11-02T16:41:58.696Z,3.07
2018-11-02T16:44:25.678Z,3.10
2018-11-02T16:46:52.520Z,2.93
2018-11-02T16:49:19.423Z,2.47
2018-11-02T16:51:46.350Z,3.10
2018-11-02T16:54:13.250Z,2.80
2018-11-02T16:56:40.333Z,2.87
2018-11-02T16:59:07.172Z,2.70
2018-11-02T17:01:34.095Z,2.90
2018-11-02T17:04:01.011Z,2.60
2018-11-02T17:06:27.921Z,2.60
2018-11-02T17:08:54.837Z,3.53
2018-11-02T17:11:21.806Z,3.07
2018-11-02T17:13:48.657Z,3.37
2018-11-02T17:16:15.595Z,3.70
2018-11-02T17:18:42.502Z,3.07
2018-11-02T17:21:09.426Z,3.50
2018-11-02T17:23:36.333Z,4.03
2018-11-02T17:26:03.674Z,5.13
2018-11-02T17:28:30.575Z,4.87
2018-11-02T17:30:57.501Z,5.97
2018-11-02T17:33:24.409Z,5.53
2018-11-02T17:35:51.322Z,6.30
2018-11-02T17:38:18.236Z,6.90
2018-11-02T17:40:45.178Z,14.43
2018-11-02T17:43:12.088Z,8.90
2018-11-02T17:45:38.989Z,5.87
2018-11-02T17:48:05.907Z,4.30
2018-11-02T17:50:32.862Z,3.60
2018-11-02T17:52:59.777Z,3.63
2018-11-02T17:55:26.683Z,3.47
2018-11-02T17:57:53.613Z,3.23
2018-11-02T18:00:20.533Z,3.07
2018-11-02T18:02:47.441Z,3.03
2018-11-02T18:05:14.340Z,3.17
2018-11-02T18:07:41.262Z,2.67
2018-11-02T18:10:09.947Z,2.57
2018-11-02T18:12:36.934Z,2.70
2018-11-02T18:15:04.240Z,2.53
2018-11-02T18:17:31.153Z,3.50
2018-11-02T18:19:58.110Z,3.80
2018-11-02T18:22:25.222Z,3.20
2018-11-02T18:24:51.966Z,4.37
2018-11-02T18:27:18.918Z,4.30
2018-11-02T18:29:45.846Z,4.10
2018-11-02T18:32:12.766Z,4.37
2018-11-02T18:34:39.705Z,5.50
2018-11-02T18:37:06.662Z,4.70
2018-11-02T18:39:33.621Z,4.33
2018-11-02T18:42:00.553Z,3.47
2018-11-02T18:44:27.491Z,3.60
2018-11-02T18:46:54.408Z,2.97
2018-11-02T18:49:21.357Z,3.37
2018-11-02T18:51:48.281Z,3.30
2018-11-02T18:54:15.197Z,3.63
2018-11-02T18:56:42.126Z,3.90
2018-11-02T18:59:09.529Z,3.50
2018-11-02T19:01:36.463Z,4.20
2018-11-02T19:04:03.455Z,4.30
2018-11-02T19:06:30.380Z,4.90
2018-11-02T19:08:57.343Z,4.67
2018-11-02T19:11:24.276Z,4.53
2018-11-02T19:13:51.992Z,4.00
2018-11-02T19:16:18.945Z,4.80
2018-11-02T19:18:45.889Z,5.03
2018-11-02T19:21:13.334Z,4.67
2018-11-02T19:23:40.263Z,5.40
2018-11-02T19:26:07.247Z,5.00
2018-11-02T19:28:34.273Z,4.70
2018-11-02T19:31:01.207Z,4.87
2018-11-02T19:33:28.129Z,4.33
2018-11-02T19:35:55.072Z,3.73
2018-11-02T19:38:22.067Z,4.30
2018-11-02T19:40:48.993Z,3.97
2018-11-02T19:43:15.917Z,4.50
2018-11-02T19:45:42.878Z,4.43
2018-11-02T19:48:09.821Z,4.33
2018-11-02T19:50:36.803Z,4.63
2018-11-02T19:53:03.806Z,4.33
2018-11-02T19:55:30.795Z,3.70
2018-11-02T19:57:57.693Z,3.37
2018-11-02T20:00:24.651Z,3.20
2018-11-02T20:02:51.581Z,3.20
2018-11-02T20:05:19.399Z,3.93
2018-11-02T20:07:46.331Z,3.43
2018-11-02T20:10:14.087Z,3.27
2018-11-02T20:12:41.437Z,3.33
2018-11-02T20:15:09.012Z,3.90
2018-11-02T20:17:36.328Z,4.40
2018-11-02T20:20:03.469Z,3.60
2018-11-02T20:22:30.405Z,3.60
2018-11-02T20:24:57.338Z,3.83
2018-11-02T20:27:24.285Z,3.50
2018-11-02T20:29:51.200Z,3.77
2018-11-02T20:32:18.185Z,3.37
2018-11-02T20:34:45.081Z,3.87
2018-11-02T20:37:12.018Z,4.03
2018-11-02T20:39:38.963Z,3.50
2018-11-02T20:42:06.345Z,4.00
2018-11-02T20:44:33.281Z,3.80
2018-11-02T20:47:00.248Z,3.77
2018-11-02T20:49:27.205Z,3.90
2018-11-02T20:51:54.129Z,4.40
2018-11-02T20:54:21.091Z,3.60
2018-11-02T20:56:48.065Z,3.20
2018-11-02T20:59:14.998Z,4.10
2018-11-02T21:01:41.926Z,4.00
2018-11-02T21:04:08.846Z,3.90
2018-11-02T21:06:35.787Z,3.73
2018-11-02T21:09:03.165Z,3.60
2018-11-02T21:11:29.844Z,4.27
2018-11-02T21:13:56.803Z,3.73
2018-11-02T21:16:23.798Z,3.67
2018-11-02T21:18:50.712Z,3.77
2018-11-02T21:21:17.687Z,4.13
2018-11-02T21:23:44.591Z,3.83
2018-11-02T21:26:11.498Z,4.10
2018-11-02T21:28:38.457Z,4.07
2018-11-02T21:31:05.374Z,4.30
2018-11-02T21:33:32.370Z,4.07
2018-11-02T21:35:59.245Z,3.93
2018-11-02T21:38:27.005Z,3.80
2018-11-02T21:40:53.906Z,6.47
2018-11-02T21:43:20.834Z,5.80
2018-11-02T21:45:47.792Z,4.73
2018-11-02T21:48:14.741Z,4.93
2018-11-02T21:50:41.669Z,4.67
2018-11-02T21:53:08.616Z,4.50
2018-11-02T21:55:35.551Z,4.87
2018-11-02T21:58:02.490Z,4.53
2018-11-02T22:00:29.415Z,3.87
2018-11-02T22:02:56.361Z,4.80
2018-11-02T22:05:23.295Z,4.67
2018-11-02T22:07:50.508Z,4.60
2018-11-02T22:10:17.753Z,4.42
2018-11-02T22:12:44.708Z,4.53
2018-11-02T22:15:11.653Z,5.00
2018-11-02T22:17:45.384Z,4.97
2018-11-02T22:20:13.432Z,4.93
2018-11-02T22:22:40.604Z,4.87
2018-11-02T22:25:08.158Z,4.80
2018-11-02T22:27:35.181Z,4.72
2018-11-02T22:30:02.169Z,5.10
2018-11-02T22:32:29.113Z,5.45
2018-11-02T22:34:56.053Z,5.60
2018-11-02T22:37:22.995Z,5.25
2018-11-02T22:39:49.937Z,4.93
2018-11-02T22:42:16.861Z,4.37
2018-11-02T22:44:43.789Z,4.62
2018-11-02T22:47:10.702Z,4.83
2018-11-02T22:49:37.657Z,4.73
2018-11-02T22:52:04.595Z,4.80
2018-11-02T22:54:31.545Z,4.92
2018-11-02T22:56:58.477Z,4.70
2018-11-02T22:59:25.433Z,5.10
2018-11-02T23:01:52.377Z,4.67
2018-11-02T23:04:19.321Z,4.83
2018-11-02T23:06:46.253Z,5.00
2018-11-02T23:09:13.184Z,4.80
2018-11-02T23:11:40.109Z,5.12
2018-11-02T23:14:07.549Z,6.12
2018-11-02T23:16:34.473Z,5.28
2018-11-02T23:19:01.430Z,5.50
2018-11-02T23:21:28.353Z,5.67
2018-11-02T23:23:55.303Z,6.20
2018-11-02T23:26:22.257Z,5.70
2018-11-02T23:28:49.201Z,5.00
2018-11-02T23:31:16.125Z,5.62
2018-11-02T23:33:43.054Z,5.20
2018-11-02T23:36:09.969Z,5.42
2018-11-02T23:38:36.897Z,5.33
2018-11-02T23:41:04.278Z,4.90
2018-11-02T23:43:31.204Z,5.67
2018-11-02T23:45:58.125Z,6.67
2018-11-02T23:48:25.072Z,6.00
2018-11-02T23:50:52.014Z,5.80
2018-11-02T23:53:19.155Z,6.30
2018-11-02T23:55:46.617Z,5.55
2018-11-02T23:58:13.885Z,6.17
